createdAt,value
2023-04-26T00:02:06.889Z,3.70
2023-04-26T00:04:35.390Z,5.43
2023-04-26T00:07:03.689Z,3.88
2023-04-26T00:09:32.239Z,4.22
2023-04-26T00:12:00.979Z,2.55
2023-04-26T00:14:29.112Z,2.70
2023-04-26T00:16:57.485Z,2.17
2023-04-26T00:19:25.792Z,2.10
2023-04-26T00:21:54.070Z,2.20
2023-04-26T00:24:22.332Z,1.98
2023-04-26T00:26:50.584Z,2.70
2023-04-26T00:29:18.858Z,3.40
2023-04-26T00:31:47.202Z,2.50
2023-04-26T00:34:15.583Z,2.72
2023-04-26T00:36:44.066Z,2.15
2023-04-26T00:39:12.866Z,2.90
2023-04-26T00:41:41.424Z,3.60
2023-04-26T00:44:09.883Z,7.03
2023-04-26T00:46:38.162Z,10.50
2023-04-26T00:49:06.449Z,8.40
2023-04-26T00:51:36.036Z,7.15
2023-04-26T00:54:04.314Z,3.78
2023-04-26T00:56:33.344Z,2.55
2023-04-26T00:59:01.846Z,6.80
2023-04-26T01:01:30.381Z,4.45
2023-04-26T01:03:59.194Z,2.92
2023-04-26T01:06:33.790Z,2.20
2023-04-26T01:09:04.569Z,2.60
2023-04-26T01:11:33.881Z,1.90
2023-04-26T01:14:02.706Z,2.47
2023-04-26T01:16:31.308Z,2.00
2023-04-26T01:19:07.763Z,2.17
2023-04-26T01:21:36.021Z,2.20
2023-04-26T01:24:04.934Z,2.22
2023-04-26T01:26:33.244Z,1.92
2023-04-26T01:29:01.336Z,2.00
2023-04-26T01:31:29.659Z,2.60
2023-04-26T01:33:59.490Z,2.13
2023-04-26T01:36:28.117Z,2.28
2023-04-26T01:38:56.218Z,2.45
2023-04-26T01:41:24.468Z,2.17
2023-04-26T01:43:54.011Z,2.55
2023-04-26T01:46:22.686Z,2.35
2023-04-26T01:48:51.212Z,3.05
2023-04-26T01:51:20.642Z,2.53
2023-04-26T01:53:48.983Z,2.53
2023-04-26T01:56:17.252Z,2.42
2023-04-26T01:58:45.583Z,2.45
2023-04-26T02:01:13.954Z,2.88
2023-04-26T02:03:42.295Z,2.47
2023-04-26T02:06:10.625Z,3.30
2023-04-26T02:08:38.812Z,3.78
2023-04-26T02:11:07.915Z,2.75
2023-04-26T02:13:37.562Z,3.22
2023-04-26T02:16:06.405Z,3.67
2023-04-26T02:18:34.915Z,2.80
2023-04-26T02:21:03.210Z,3.55
2023-04-26T02:23:32.433Z,2.75
2023-04-26T02:26:00.809Z,3.08
2023-04-26T02:28:28.901Z,3.35
2023-04-26T02:30:57.603Z,3.67
2023-04-26T02:33:26.040Z,3.70
2023-04-26T02:35:54.288Z,3.78
2023-04-26T02:38:22.558Z,4.07
2023-04-26T02:40:50.728Z,3.78
2023-04-26T02:43:19.195Z,4.10
2023-04-26T02:45:47.513Z,3.70
2023-04-26T02:48:15.729Z,3.78
2023-04-26T02:50:44.002Z,3.30
2023-04-26T02:53:15.163Z,3.63
2023-04-26T02:55:44.020Z,3.88
2023-04-26T02:58:12.154Z,3.25
2023-04-26T03:00:40.439Z,3.53
2023-04-26T03:03:08.966Z,3.03
2023-04-26T03:05:37.529Z,3.35
2023-04-26T03:08:07.077Z,3.10
2023-04-26T03:10:35.475Z,2.67
2023-04-26T03:13:04.922Z,3.15
2023-04-26T03:15:33.344Z,2.65
2023-04-26T03:18:01.883Z,3.17
2023-04-26T03:20:30.004Z,2.88
2023-04-26T03:22:58.396Z,2.97
2023-04-26T03:25:27.175Z,3.28
2023-04-26T03:27:55.484Z,3.33
2023-04-26T03:30:24.382Z,3.72
2023-04-26T03:32:53.852Z,3.33
2023-04-26T03:35:22.405Z,3.22
2023-04-26T03:37:53.162Z,3.60
2023-04-26T03:40:22.795Z,4.00
2023-04-26T03:42:50.824Z,3.03
2023-04-26T03:45:19.294Z,3.85
2023-04-26T03:47:47.491Z,3.67
2023-04-26T03:50:15.937Z,4.03
2023-04-26T03:52:44.049Z,3.30
2023-04-26T03:55:12.280Z,4.13
2023-04-26T03:57:41.225Z,3.47
2023-04-26T04:00:10.136Z,4.10
2023-04-26T04:02:43.959Z,4.72
2023-04-26T04:05:17.891Z,3.05
2023-04-26T04:07:46.159Z,3.45
2023-04-26T04:10:14.961Z,3.58
2023-04-26T04:12:44.818Z,3.63
2023-04-26T04:15:13.288Z,4.45
2023-04-26T04:17:47.730Z,4.40
2023-04-26T04:20:16.481Z,4.40
2023-04-26T04:22:44.776Z,4.57
2023-04-26T04:25:12.886Z,3.63
2023-04-26T04:27:43.085Z,3.60
2023-04-26T04:30:12.214Z,4.78
2023-04-26T04:32:41.900Z,3.83
2023-04-26T04:35:10.601Z,4.20
2023-04-26T04:37:38.935Z,4.80
2023-04-26T04:40:09.008Z,4.32
2023-04-26T04:42:39.900Z,4.22
2023-04-26T04:45:10.282Z,4.40
2023-04-26T04:47:40.427Z,3.90
2023-04-26T04:50:09.124Z,3.88
2023-04-26T04:52:38.003Z,2.83
2023-04-26T04:55:06.669Z,4.30
2023-04-26T04:57:36.968Z,4.43
2023-04-26T05:00:06.277Z,3.08
2023-04-26T05:02:35.514Z,3.15
2023-04-26T05:05:05.071Z,4.80
2023-04-26T05:07:33.698Z,4.97
2023-04-26T05:10:03.487Z,4.13
2023-04-26T05:12:32.400Z,2.83
2023-04-26T05:15:00.590Z,3.63
2023-04-26T05:17:28.948Z,3.88
2023-04-26T05:19:57.615Z,4.95
2023-04-26T05:22:25.801Z,4.78
2023-04-26T05:24:54.472Z,4.03
2023-04-26T05:27:22.839Z,3.42
2023-04-26T05:30:08.425Z,4.45
2023-04-26T05:32:45.616Z,3.20
2023-04-26T05:35:32.510Z,3.80
2023-04-26T05:38:00.735Z,3.95
2023-04-26T05:40:29.358Z,4.35
2023-04-26T05:42:57.592Z,4.38
2023-04-26T05:45:27.823Z,3.83
2023-04-26T05:47:56.340Z,3.83
2023-04-26T05:50:26.328Z,3.88
2023-04-26T05:52:54.551Z,4.53
2023-04-26T05:55:22.837Z,4.07
2023-04-26T05:57:51.264Z,3.53
2023-04-26T06:00:21.412Z,4.07
2023-04-26T06:02:50.247Z,4.53
2023-04-26T06:05:19.360Z,4.93
2023-04-26T06:07:50.134Z,4.43
2023-04-26T06:10:19.032Z,5.05
2023-04-26T06:12:47.915Z,3.78
2023-04-26T06:15:17.503Z,4.07
2023-04-26T06:17:45.826Z,4.65
2023-04-26T06:20:14.199Z,4.03
2023-04-26T06:22:42.436Z,5.63
2023-04-26T06:25:11.104Z,4.45
2023-04-26T06:27:40.260Z,5.05
2023-04-26T06:30:11.088Z,5.82
2023-04-26T06:32:42.783Z,5.22
2023-04-26T06:35:11.214Z,6.38
2023-04-26T06:37:39.456Z,5.90
2023-04-26T06:40:09.228Z,7.72
2023-04-26T06:42:38.117Z,9.38
2023-04-26T06:45:32.084Z,7.28
2023-04-26T06:48:02.349Z,7.38
2023-04-26T06:50:30.638Z,7.18
2023-04-26T06:52:58.879Z,5.80
2023-04-26T06:55:27.190Z,6.25
2023-04-26T06:57:55.598Z,8.55
2023-04-26T07:00:24.216Z,6.85
2023-04-26T07:02:52.444Z,9.43
2023-04-26T07:05:22.217Z,7.75
2023-04-26T07:07:50.722Z,7.57
2023-04-26T07:10:18.974Z,8.23
2023-04-26T07:12:47.320Z,8.20
2023-04-26T07:15:15.659Z,8.48
2023-04-26T07:17:43.878Z,8.50
2023-04-26T07:20:12.451Z,11.05
2023-04-26T07:22:40.845Z,14.25
2023-04-26T07:25:09.192Z,18.50
2023-04-26T07:27:37.564Z,21.50
2023-04-26T07:30:06.617Z,17.35
2023-04-26T07:32:34.815Z,13.23
2023-04-26T07:35:08.793Z,10.30
2023-04-26T07:37:37.167Z,11.02
2023-04-26T07:40:05.719Z,9.25
2023-04-26T07:42:33.995Z,9.60
2023-04-26T07:45:02.431Z,11.13
2023-04-26T07:47:30.680Z,10.35
2023-04-26T07:49:58.945Z,9.50
2023-04-26T07:52:27.223Z,9.70
2023-04-26T07:54:55.408Z,12.88
2023-04-26T07:57:23.543Z,13.45
2023-04-26T07:59:51.826Z,23.08
2023-04-26T08:02:25.009Z,10.98
2023-04-26T08:04:58.317Z,12.18
2023-04-26T08:07:26.654Z,13.48
2023-04-26T08:09:54.730Z,10.98
2023-04-26T08:12:23.055Z,11.50
2023-04-26T08:14:51.229Z,11.02
2023-04-26T08:17:19.524Z,9.25
2023-04-26T08:19:47.720Z,10.02
2023-04-26T08:22:16.005Z,11.25
2023-04-26T08:24:48.973Z,10.30
2023-04-26T08:27:17.760Z,9.50
2023-04-26T08:29:46.867Z,10.05
2023-04-26T08:32:15.251Z,11.15
2023-04-26T08:34:43.517Z,11.65
2023-04-26T08:37:12.165Z,11.25
2023-04-26T08:39:40.338Z,8.00
2023-04-26T08:42:16.622Z,9.50
2023-04-26T08:44:45.993Z,9.60
2023-04-26T08:47:29.415Z,12.77
2023-04-26T08:49:59.303Z,11.63
2023-04-26T08:52:32.255Z,11.40
2023-04-26T08:55:01.356Z,11.27
2023-04-26T08:57:33.019Z,11.45
2023-04-26T09:00:04.068Z,9.95
2023-04-26T09:02:33.284Z,8.82
2023-04-26T09:05:01.600Z,7.68
2023-04-26T09:07:36.048Z,10.85
2023-04-26T09:10:06.233Z,9.55
2023-04-26T09:12:35.208Z,9.50
2023-04-26T09:15:04.505Z,8.77
2023-04-26T09:17:40.284Z,8.90
2023-04-26T09:20:25.397Z,8.30
2023-04-26T09:23:07.831Z,8.52
2023-04-26T09:28:05.257Z,10.07
2023-04-26T09:30:39.648Z,11.50
2023-04-26T09:33:07.926Z,11.05
2023-04-26T09:35:45.231Z,12.10
2023-04-26T09:38:14.626Z,11.13
2023-04-26T09:40:44.152Z,9.70
2023-04-26T09:43:17.412Z,10.50
2023-04-26T09:45:53.118Z,10.13
2023-04-26T09:48:34.992Z,8.02
2023-04-26T09:51:12.341Z,9.70
2023-04-26T09:53:47.766Z,10.00
2023-04-26T09:56:16.896Z,9.02
2023-04-26T09:58:44.925Z,7.85
2023-04-26T10:01:16.558Z,6.90
2023-04-26T10:03:45.854Z,7.55
2023-04-26T10:06:14.422Z,7.30
2023-04-26T10:08:43.097Z,7.72
2023-04-26T10:11:11.875Z,6.50
2023-04-26T10:13:41.459Z,5.93
2023-04-26T10:16:10.498Z,6.15
2023-04-26T10:18:39.172Z,5.60
2023-04-26T10:21:30.305Z,5.05
2023-04-26T10:24:00.918Z,6.20
2023-04-26T10:26:51.738Z,5.70
2023-04-26T10:29:26.445Z,4.30
2023-04-26T10:32:03.724Z,5.63
2023-04-26T10:34:36.546Z,5.10
2023-04-26T10:37:12.197Z,5.50
2023-04-26T10:39:42.071Z,5.30
2023-04-26T10:42:23.961Z,5.78
2023-04-26T10:45:26.955Z,4.90
2023-04-26T10:48:18.558Z,6.18
2023-04-26T10:51:02.432Z,5.03
2023-04-26T10:53:54.208Z,4.57
2023-04-26T10:56:28.480Z,5.30
2023-04-26T10:59:36.271Z,5.22
2023-04-26T11:02:05.143Z,5.20
2023-04-26T11:04:53.295Z,4.68
2023-04-26T11:07:40.045Z,6.00
2023-04-26T11:10:11.222Z,5.07
2023-04-26T11:12:42.830Z,4.97
2023-04-26T11:15:13.443Z,4.97
2023-04-26T11:17:41.701Z,5.15
2023-04-26T11:20:11.112Z,4.57
2023-04-26T11:22:43.151Z,5.75
2023-04-26T11:25:14.409Z,4.97
2023-04-26T11:27:46.517Z,5.15
2023-04-26T11:30:14.944Z,6.28
2023-04-26T11:32:43.157Z,6.10
2023-04-26T11:35:11.312Z,6.10
2023-04-26T11:37:39.623Z,5.55
2023-04-26T11:40:10.803Z,6.10
2023-04-26T11:42:39.242Z,5.38
2023-04-26T11:45:07.980Z,6.05
2023-04-26T11:47:36.501Z,6.35
2023-04-26T11:50:04.992Z,6.53
2023-04-26T11:52:33.748Z,6.85
2023-04-26T11:55:08.585Z,7.20
2023-04-26T11:57:37.134Z,6.78
2023-04-26T12:00:15.098Z,7.28
2023-04-26T12:02:47.725Z,7.50
2023-04-26T12:05:27.144Z,8.13
2023-04-26T12:07:59.950Z,8.10
2023-04-26T12:10:36.965Z,7.47
2023-04-26T12:13:05.342Z,8.52
2023-04-26T12:15:34.115Z,6.95
2023-04-26T12:18:07.347Z,5.60
2023-04-26T12:20:37.493Z,8.32
2023-04-26T12:23:18.600Z,6.47
2023-04-26T12:25:57.929Z,6.73
2023-04-26T12:28:27.291Z,6.63
2023-04-26T12:30:55.581Z,7.60
2023-04-26T12:33:23.743Z,5.95
2023-04-26T12:35:52.550Z,6.43
2023-04-26T12:38:20.885Z,7.60
2023-04-26T12:40:49.162Z,7.47
2023-04-26T12:43:17.390Z,9.27
2023-04-26T12:45:45.982Z,9.30
2023-04-26T12:48:14.742Z,8.68
2023-04-26T12:50:43.252Z,5.97
2023-04-26T12:53:11.792Z,7.05
2023-04-26T12:55:40.001Z,7.93
2023-04-26T12:58:08.249Z,6.45
2023-04-26T13:00:36.611Z,6.88
2023-04-26T13:03:05.434Z,7.35
2023-04-26T13:05:33.703Z,7.32
2023-04-26T13:08:02.101Z,6.07
2023-04-26T13:10:30.429Z,8.10
2023-04-26T13:12:58.751Z,5.90
2023-04-26T13:15:27.826Z,4.80
2023-04-26T13:17:56.334Z,4.85
2023-04-26T13:20:26.376Z,5.53
2023-04-26T13:22:56.205Z,4.90
2023-04-26T13:25:24.313Z,5.00
2023-04-26T13:27:52.540Z,5.65
2023-04-26T13:30:21.120Z,6.13
2023-04-26T13:32:49.344Z,5.75
2023-04-26T13:35:17.620Z,6.95
2023-04-26T13:37:45.983Z,5.20
2023-04-26T13:40:14.351Z,5.85
2023-04-26T13:42:43.413Z,6.55
2023-04-26T13:45:14.275Z,5.38
2023-04-26T13:47:42.967Z,4.90
2023-04-26T13:50:11.367Z,6.28
2023-04-26T13:52:39.586Z,5.00
2023-04-26T13:55:08.441Z,4.70
2023-04-26T13:57:36.531Z,6.60
2023-04-26T14:00:05.224Z,6.28
2023-04-26T14:02:40.154Z,5.55
2023-04-26T14:05:09.461Z,5.55
2023-04-26T14:07:37.771Z,5.38
2023-04-26T14:10:06.382Z,4.45
2023-04-26T14:12:34.952Z,6.32
2023-04-26T14:15:03.239Z,6.47
2023-04-26T14:17:31.553Z,6.15
2023-04-26T14:19:59.839Z,4.70
2023-04-26T14:22:28.395Z,4.53
2023-04-26T14:24:56.606Z,5.68
2023-04-26T14:27:24.823Z,5.72
2023-04-26T14:29:53.126Z,4.18
2023-04-26T14:32:21.313Z,5.53
2023-04-26T14:34:49.524Z,4.47
2023-04-26T14:37:17.745Z,5.03
2023-04-26T14:39:46.045Z,6.00
2023-04-26T14:42:14.273Z,6.22
2023-04-26T14:44:42.688Z,3.67
2023-04-26T14:47:11.070Z,4.05
2023-04-26T14:49:39.284Z,5.88
2023-04-26T14:52:07.528Z,4.53
2023-04-26T14:54:40.179Z,4.55
2023-04-26T14:57:08.734Z,4.13
2023-04-26T14:59:37.676Z,4.38
2023-04-26T15:02:05.928Z,4.10
2023-04-26T15:04:34.379Z,4.85
2023-04-26T15:07:02.761Z,3.88
2023-04-26T15:09:31.125Z,4.97
2023-04-26T15:11:59.441Z,3.88
2023-04-26T15:14:27.528Z,4.82
2023-04-26T15:16:55.709Z,4.22
2023-04-26T15:19:24.183Z,4.65
2023-04-26T15:21:52.296Z,4.40
2023-04-26T15:24:20.588Z,3.90
2023-04-26T15:26:48.789Z,3.50
2023-04-26T15:29:16.872Z,3.78
2023-04-26T15:31:45.191Z,4.05
2023-04-26T15:34:13.448Z,3.72
2023-04-26T15:36:41.829Z,4.18
2023-04-26T15:39:09.966Z,3.45
2023-04-26T15:41:38.173Z,3.95
2023-04-26T15:44:09.108Z,3.35
2023-04-26T15:46:38.176Z,4.65
2023-04-26T15:49:06.572Z,4.53
2023-04-26T15:51:34.789Z,4.60
2023-04-26T15:54:03.009Z,3.45
2023-04-26T15:56:31.303Z,4.05
2023-04-26T15:58:59.511Z,3.17
2023-04-26T16:01:29.650Z,3.78
2023-04-26T16:03:58.165Z,4.10
2023-04-26T16:06:28.306Z,3.28
2023-04-26T16:08:56.612Z,3.28
2023-04-26T16:11:24.857Z,2.92
2023-04-26T16:13:53.278Z,3.40
2023-04-26T16:16:21.572Z,4.30
2023-04-26T16:18:49.706Z,4.40
2023-04-26T16:21:18.014Z,2.88
2023-04-26T16:23:46.356Z,3.13
2023-04-26T16:26:14.610Z,3.97
2023-04-26T16:28:42.773Z,3.22
2023-04-26T16:31:11.012Z,3.78
2023-04-26T16:33:39.232Z,3.17
2023-04-26T16:36:07.937Z,6.80
2023-04-26T16:38:36.227Z,4.60
2023-04-26T16:41:04.449Z,5.15
2023-04-26T16:43:32.746Z,5.05
2023-04-26T16:46:05.860Z,3.97
2023-04-26T16:48:35.857Z,3.45
2023-04-26T16:51:07.602Z,4.03
2023-04-26T16:56:04.704Z,6.05
2023-04-26T16:58:33.083Z,4.90
2023-04-26T17:01:01.478Z,3.33
2023-04-26T17:03:29.789Z,2.60
2023-04-26T17:05:58.072Z,3.50
2023-04-26T17:08:26.285Z,3.75
2023-04-26T17:10:54.489Z,2.53
2023-04-26T17:13:22.701Z,3.75
2023-04-26T17:15:51.010Z,3.38
2023-04-26T17:18:19.386Z,3.80
2023-04-26T17:20:47.528Z,3.10
2023-04-26T17:23:15.701Z,4.43
2023-04-26T17:25:44.098Z,3.13
2023-04-26T17:28:12.214Z,2.75
2023-04-26T17:30:40.445Z,3.47
2023-04-26T17:33:08.985Z,3.47
2023-04-26T17:35:37.160Z,2.60
2023-04-26T17:38:05.437Z,3.03
2023-04-26T17:40:33.778Z,4.13
2023-04-26T17:43:03.792Z,4.80
2023-04-26T17:45:32.166Z,4.63
2023-04-26T17:48:00.681Z,3.60
2023-04-26T17:50:28.803Z,5.05
2023-04-26T17:52:57.192Z,3.97
2023-04-26T17:55:25.440Z,4.00
2023-04-26T17:57:53.582Z,3.10
2023-04-26T18:00:21.923Z,3.58
2023-04-26T18:02:50.406Z,4.68
2023-04-26T18:05:18.735Z,4.65
2023-04-26T18:07:46.912Z,3.88
2023-04-26T18:10:15.478Z,4.10
2023-04-26T18:12:43.597Z,4.60
2023-04-26T18:15:11.905Z,3.40
2023-04-26T18:17:40.989Z,4.43
2023-04-26T18:20:09.856Z,4.78
2023-04-26T18:22:38.204Z,6.50
2023-04-26T18:25:06.878Z,5.82
2023-04-26T18:27:35.312Z,5.93
2023-04-26T18:30:03.583Z,5.90
2023-04-26T18:32:31.851Z,5.35
2023-04-26T18:35:00.342Z,6.68
2023-04-26T18:37:28.731Z,4.40
2023-04-26T18:39:56.861Z,6.32
2023-04-26T18:42:25.170Z,6.60
2023-04-26T18:44:53.319Z,5.68
2023-04-26T18:47:21.729Z,5.68
2023-04-26T18:49:49.786Z,5.80
2023-04-26T18:52:18.121Z,6.28
2023-04-26T18:54:46.254Z,5.88
2023-04-26T18:57:14.702Z,7.20
2023-04-26T18:59:42.799Z,7.45
2023-04-26T19:02:11.181Z,7.63
2023-04-26T19:04:39.789Z,11.52
2023-04-26T19:07:08.244Z,29.88
2023-04-26T19:09:46.609Z,20.80
2023-04-26T19:12:21.669Z,18.33
2023-04-26T19:14:49.863Z,17.00
2023-04-26T19:17:18.057Z,16.65
2023-04-26T19:19:46.280Z,15.75
2023-04-26T19:22:14.677Z,16.42
2023-04-26T19:24:42.909Z,13.57
2023-04-26T19:27:11.173Z,14.40
2023-04-26T19:29:39.229Z,18.65
2023-04-26T19:32:07.449Z,17.70
2023-04-26T19:34:36.205Z,24.40
2023-04-26T19:37:04.244Z,21.05
2023-04-26T19:39:32.755Z,22.75
2023-04-26T19:42:00.938Z,21.88
2023-04-26T19:44:29.043Z,21.23
2023-04-26T19:46:57.499Z,28.02
2023-04-26T19:49:27.862Z,34.13
2023-04-26T19:51:57.492Z,35.10
2023-04-26T19:54:25.637Z,25.27
2023-04-26T19:56:53.904Z,23.73
2023-04-26T19:59:22.196Z,23.23
2023-04-26T20:01:51.649Z,21.83
2023-04-26T20:04:22.297Z,20.38
2023-04-26T20:06:50.522Z,20.13
2023-04-26T20:09:18.754Z,18.40
2023-04-26T20:11:47.349Z,16.77
2023-04-26T20:14:15.467Z,15.35
2023-04-26T20:16:43.946Z,17.00
2023-04-26T20:19:12.445Z,15.57
2023-04-26T20:21:40.570Z,16.50
2023-04-26T20:24:09.035Z,21.05
2023-04-26T20:26:37.367Z,27.42
2023-04-26T20:29:05.772Z,26.67
2023-04-26T20:31:34.247Z,34.92
2023-04-26T20:34:02.635Z,30.80
2023-04-26T20:36:30.889Z,28.70
2023-04-26T20:38:59.174Z,34.78
2023-04-26T20:41:27.419Z,31.27
2023-04-26T20:43:55.492Z,31.67
2023-04-26T20:46:23.778Z,29.10
2023-04-26T20:48:52.278Z,25.00
2023-04-26T20:51:20.464Z,26.88
2023-04-26T20:53:48.838Z,29.88
2023-04-26T20:56:17.233Z,29.85
2023-04-26T20:58:45.286Z,30.75
2023-04-26T21:01:13.591Z,30.52
2023-04-26T21:03:42.114Z,27.27
2023-04-26T21:06:10.544Z,26.60
2023-04-26T21:08:38.823Z,21.90
2023-04-26T21:11:07.058Z,18.38
2023-04-26T21:13:35.384Z,18.70
2023-04-26T21:16:03.744Z,13.48
2023-04-26T21:18:32.346Z,13.18
2023-04-26T21:21:00.435Z,15.98
2023-04-26T21:23:28.792Z,14.20
2023-04-26T21:25:57.275Z,14.38
2023-04-26T21:28:25.489Z,11.30
2023-04-26T21:31:03.452Z,11.30
2023-04-26T21:33:32.162Z,12.20
2023-04-26T21:36:00.874Z,10.90
2023-04-26T21:38:29.198Z,11.52
2023-04-26T21:40:57.441Z,10.52
2023-04-26T21:43:25.881Z,12.30
2023-04-26T21:45:56.869Z,19.70
2023-04-26T21:48:26.325Z,17.77
2023-04-26T21:50:54.745Z,19.77
2023-04-26T21:53:23.024Z,18.88
2023-04-26T21:55:52.889Z,19.45
2023-04-26T21:58:22.019Z,18.08
2023-04-26T22:00:51.032Z,16.85
2023-04-26T22:03:19.638Z,16.27
2023-04-26T22:05:48.030Z,18.85
2023-04-26T22:08:16.471Z,19.38
2023-04-26T22:10:44.674Z,20.75
2023-04-26T22:13:13.005Z,21.40
2023-04-26T22:15:41.393Z,23.42
2023-04-26T22:18:09.505Z,35.92
2023-04-26T22:20:38.389Z,27.50
2023-04-26T22:23:06.902Z,26.15
2023-04-26T22:25:35.120Z,21.73
2023-04-26T22:28:03.410Z,19.92
2023-04-26T22:30:31.657Z,17.40
2023-04-26T22:32:59.950Z,18.75
2023-04-26T22:35:29.133Z,20.80
2023-04-26T22:37:57.522Z,20.90
2023-04-26T22:40:25.650Z,21.40
2023-04-26T22:42:53.811Z,22.08
2023-04-26T22:45:22.366Z,17.67
2023-04-26T22:47:50.626Z,16.30
2023-04-26T22:50:18.990Z,16.20
2023-04-26T22:52:47.211Z,14.93
2023-04-26T22:55:15.394Z,13.43
2023-04-26T22:57:45.796Z,11.48
2023-04-26T23:00:14.956Z,10.02
2023-04-26T23:02:43.437Z,10.90
2023-04-26T23:05:12.008Z,9.98
2023-04-26T23:07:40.980Z,8.52
2023-04-26T23:10:09.805Z,10.35
2023-04-26T23:12:38.061Z,8.25
2023-04-26T23:15:06.911Z,8.73
2023-04-26T23:17:35.106Z,9.57
2023-04-26T23:20:03.511Z,8.95
2023-04-26T23:22:31.906Z,8.88
2023-04-26T23:25:00.103Z,9.93
2023-04-26T23:27:28.361Z,10.73
2023-04-26T23:29:56.700Z,12.75
2023-04-26T23:32:24.922Z,11.55
2023-04-26T23:34:53.325Z,14.80
2023-04-26T23:37:21.677Z,12.93
2023-04-26T23:39:49.949Z,14.88
2023-04-26T23:42:18.199Z,11.75
2023-04-26T23:44:46.464Z,12.98
2023-04-26T23:47:14.684Z,9.75
2023-04-26T23:49:42.928Z,9.25
2023-04-26T23:52:11.451Z,10.25
2023-04-26T23:54:39.561Z,8.57
2023-04-26T23:57:07.781Z,9.10
2023-04-26T23:59:36.262Z,8.27
